sensor_id;sensor_type;location;lat;lon;timestamp;pressure;altitude;pressure_sealevel;temperature;humidity
73566;BME280;61846;52.970;-3.168;2024-01-07T00:01:08;101569.97;;;6.51;48.10
73566;BME280;61846;52.970;-3.168;2024-01-07T00:03:32;101578.30;;;6.30;49.30
73566;BME280;61846;52.970;-3.168;2024-01-07T00:05:58;101577.45;;;6.54;48.30
73566;BME280;61846;52.970;-3.168;2024-01-07T00:08:23;101580.17;;;6.90;47.75
73566;BME280;61846;52.970;-3.168;2024-01-07T00:10:49;101580.80;;;6.80;47.89
73566;BME280;61846;52.970;-3.168;2024-01-07T00:13:15;101585.72;;;6.13;49.46
73566;BME280;61846;52.970;-3.168;2024-01-07T00:15:40;101581.71;;;6.34;48.29
73566;BME280;61846;52.970;-3.168;2024-01-07T00:18:06;101586.98;;;4.93;51.25
73566;BME280;61846;52.970;-3.168;2024-01-07T00:20:31;101589.82;;;6.23;49.74
73566;BME280;61846;52.970;-3.168;2024-01-07T00:22:58;101591.88;;;4.63;52.47
73566;BME280;61846;52.970;-3.168;2024-01-07T00:25:22;101588.92;;;5.53;51.82
73566;BME280;61846;52.970;-3.168;2024-01-07T00:27:47;101589.97;;;5.55;50.93
73566;BME280;61846;52.970;-3.168;2024-01-07T00:30:13;101596.65;;;6.33;48.97
73566;BME280;61846;52.970;-3.168;2024-01-07T00:32:39;101596.61;;;5.98;49.61
73566;BME280;61846;52.970;-3.168;2024-01-07T00:35:04;101599.09;;;5.90;49.99
73566;BME280;61846;52.970;-3.168;2024-01-07T00:37:29;101599.22;;;6.16;49.18
73566;BME280;61846;52.970;-3.168;2024-01-07T00:39:55;101601.15;;;6.40;49.02
73566;BME280;61846;52.970;-3.168;2024-01-07T00:42:21;101599.40;;;6.18;49.08
73566;BME280;61846;52.970;-3.168;2024-01-07T00:44:46;101599.20;;;6.24;48.12
73566;BME280;61846;52.970;-3.168;2024-01-07T00:47:12;101601.81;;;5.71;48.98
73566;BME280;61846;52.970;-3.168;2024-01-07T00:49:37;101607.27;;;5.77;49.16
73566;BME280;61846;52.970;-3.168;2024-01-07T00:52:03;101608.10;;;6.12;48.10
73566;BME280;61846;52.970;-3.168;2024-01-07T00:54:29;101609.28;;;5.27;51.76
73566;BME280;61846;52.970;-3.168;2024-01-07T00:56:54;101613.95;;;5.41;51.02
73566;BME280;61846;52.970;-3.168;2024-01-07T00:59:20;101617.52;;;5.43;51.99
73566;BME280;61846;52.970;-3.168;2024-01-07T01:01:45;101618.58;;;5.46;51.11
73566;BME280;61846;52.970;-3.168;2024-01-07T01:04:11;101618.55;;;5.73;50.76
73566;BME280;61846;52.970;-3.168;2024-01-07T01:06:36;101617.17;;;5.82;50.42
73566;BME280;61846;52.970;-3.168;2024-01-07T01:09:02;101620.40;;;6.37;49.73
73566;BME280;61846;52.970;-3.168;2024-01-07T01:11:28;101623.79;;;5.34;51.22
73566;BME280;61846;52.970;-3.168;2024-01-07T01:13:53;101622.63;;;6.10;50.46
73566;BME280;61846;52.970;-3.168;2024-01-07T01:16:18;101624.86;;;5.61;50.56
73566;BME280;61846;52.970;-3.168;2024-01-07T01:18:44;101627.43;;;5.56;50.34
73566;BME280;61846;52.970;-3.168;2024-01-07T01:21:10;101629.04;;;5.37;50.72
73566;BME280;61846;52.970;-3.168;2024-01-07T01:23:35;101631.64;;;5.97;49.58
73566;BME280;61846;52.970;-3.168;2024-01-07T01:26:01;101632.87;;;5.31;51.21
73566;BME280;61846;52.970;-3.168;2024-01-07T01:28:25;101641.10;;;5.11;52.14
73566;BME280;61846;52.970;-3.168;2024-01-07T01:30:51;101639.35;;;4.62;52.35
73566;BME280;61846;52.970;-3.168;2024-01-07T01:33:16;101643.27;;;3.99;54.26
73566;BME280;61846;52.970;-3.168;2024-01-07T01:35:42;101651.40;;;3.27;58.64
73566;BME280;61846;52.970;-3.168;2024-01-07T01:38:07;101651.27;;;3.47;57.77
73566;BME280;61846;52.970;-3.168;2024-01-07T01:40:33;101654.42;;;3.57;57.39
73566;BME280;61846;52.970;-3.168;2024-01-07T01:42:59;101657.30;;;3.57;57.93
73566;BME280;61846;52.970;-3.168;2024-01-07T01:45:24;101658.10;;;3.58;58.29
73566;BME280;61846;52.970;-3.168;2024-01-07T01:47:49;101657.68;;;4.27;56.89
73566;BME280;61846;52.970;-3.168;2024-01-07T01:50:16;101661.48;;;3.86;55.48
73566;BME280;61846;52.970;-3.168;2024-01-07T01:52:41;101666.47;;;3.99;56.25
73566;BME280;61846;52.970;-3.168;2024-01-07T01:55:07;101670.57;;;3.13;57.68
73566;BME280;61846;52.970;-3.168;2024-01-07T01:57:33;101670.64;;;3.80;56.61
73566;BME280;61846;52.970;-3.168;2024-01-07T01:59:58;101670.12;;;4.18;55.79
73566;BME280;61846;52.970;-3.168;2024-01-07T02:02:23;101675.99;;;3.23;58.33
73566;BME280;61846;52.970;-3.168;2024-01-07T02:04:49;101673.56;;;3.98;56.48
73566;BME280;61846;52.970;-3.168;2024-01-07T02:07:15;101677.17;;;3.47;57.25
73566;BME280;61846;52.970;-3.168;2024-01-07T02:09:40;101682.12;;;3.50;57.73
73566;BME280;61846;52.970;-3.168;2024-01-07T02:12:06;101688.43;;;3.32;58.69
73566;BME280;61846;52.970;-3.168;2024-01-07T02:14:31;101690.74;;;3.32;57.90
73566;BME280;61846;52.970;-3.168;2024-01-07T02:16:56;101692.83;;;3.72;57.41
73566;BME280;61846;52.970;-3.168;2024-01-07T02:19:22;101700.37;;;2.79;59.72
73566;BME280;61846;52.970;-3.168;2024-01-07T02:21:49;101702.79;;;2.56;60.86
73566;BME280;61846;52.970;-3.168;2024-01-07T02:24:15;101703.41;;;2.39;61.45
73566;BME280;61846;52.970;-3.168;2024-01-07T02:26:38;101703.47;;;1.74;64.78
73566;BME280;61846;52.970;-3.168;2024-01-07T02:29:03;101707.72;;;0.99;66.91
73566;BME280;61846;52.970;-3.168;2024-01-07T02:31:29;101710.72;;;1.00;66.70
73566;BME280;61846;52.970;-3.168;2024-01-07T02:33:54;101709.36;;;2.25;64.13
73566;BME280;61846;52.970;-3.168;2024-01-07T02:36:19;101708.94;;;1.93;63.57
73566;BME280;61846;52.970;-3.168;2024-01-07T02:38:45;101711.09;;;2.95;61.29
73566;BME280;61846;52.970;-3.168;2024-01-07T02:41:11;101712.24;;;2.31;62.08
73566;BME280;61846;52.970;-3.168;2024-01-07T02:43:36;101712.88;;;2.63;61.82
73566;BME280;61846;52.970;-3.168;2024-01-07T02:46:02;101711.18;;;2.29;61.73
73566;BME280;61846;52.970;-3.168;2024-01-07T02:48:28;101713.19;;;2.77;60.62
73566;BME280;61846;52.970;-3.168;2024-01-07T02:50:54;101716.16;;;3.23;59.88
73566;BME280;61846;52.970;-3.168;2024-01-07T02:53:19;101720.32;;;3.11;59.82
73566;BME280;61846;52.970;-3.168;2024-01-07T02:55:44;101717.41;;;3.76;58.42
73566;BME280;61846;52.970;-3.168;2024-01-07T02:58:10;101720.58;;;3.93;57.50
73566;BME280;61846;52.970;-3.168;2024-01-07T03:00:35;101724.05;;;3.38;58.27
73566;BME280;61846;52.970;-3.168;2024-01-07T03:03:01;101724.24;;;3.86;57.16
73566;BME280;61846;52.970;-3.168;2024-01-07T03:05:27;101726.91;;;3.55;57.99
73566;BME280;61846;52.970;-3.168;2024-01-07T03:07:52;101729.77;;;2.68;59.67
73566;BME280;61846;52.970;-3.168;2024-01-07T03:10:17;101733.56;;;2.55;61.24
73566;BME280;61846;52.970;-3.168;2024-01-07T03:12:43;101741.96;;;3.63;58.61
73566;BME280;61846;52.970;-3.168;2024-01-07T03:15:08;101741.94;;;3.27;58.57
73566;BME280;61846;52.970;-3.168;2024-01-07T03:17:33;101748.67;;;3.27;58.83
73566;BME280;61846;52.970;-3.168;2024-01-07T03:19:59;101745.20;;;3.88;57.49
73566;BME280;61846;52.970;-3.168;2024-01-07T03:22:25;101751.16;;;3.55;58.23
73566;BME280;61846;52.970;-3.168;2024-01-07T03:24:50;101754.52;;;3.66;57.66
73566;BME280;61846;52.970;-3.168;2024-01-07T03:27:16;101755.89;;;4.07;57.00
73566;BME280;61846;52.970;-3.168;2024-01-07T03:29:41;101756.73;;;3.87;57.18
73566;BME280;61846;52.970;-3.168;2024-01-07T03:32:07;101757.72;;;3.83;57.32
73566;BME280;61846;52.970;-3.168;2024-01-07T03:34:32;101757.11;;;3.87;56.94
73566;BME280;61846;52.970;-3.168;2024-01-07T03:36:58;101760.10;;;3.40;59.12
73566;BME280;61846;52.970;-3.168;2024-01-07T03:39:24;101763.33;;;3.59;58.36
73566;BME280;61846;52.970;-3.168;2024-01-07T03:41:54;101759.41;;;4.21;56.75
73566;BME280;61846;52.970;-3.168;2024-01-07T03:44:15;101763.24;;;3.46;58.00
73566;BME280;61846;52.970;-3.168;2024-01-07T03:46:41;101765.42;;;4.10;56.93
73566;BME280;61846;52.970;-3.168;2024-01-07T03:49:06;101764.10;;;4.86;55.18
73566;BME280;61846;52.970;-3.168;2024-01-07T03:51:32;101766.24;;;4.71;54.67
73566;BME280;61846;52.970;-3.168;2024-01-07T03:53:58;101762.23;;;4.43;55.18
73566;BME280;61846;52.970;-3.168;2024-01-07T03:56:23;101765.44;;;4.45;54.93
73566;BME280;61846;52.970;-3.168;2024-01-07T03:58:49;101771.98;;;4.19;55.81
73566;BME280;61846;52.970;-3.168;2024-01-07T04:01:16;101769.53;;;4.37;55.15
73566;BME280;61846;52.970;-3.168;2024-01-07T04:03:40;101771.26;;;5.06;54.25
73566;BME280;61846;52.970;-3.168;2024-01-07T04:06:06;101771.79;;;5.30;53.34
73566;BME280;61846;52.970;-3.168;2024-01-07T04:08:31;101773.73;;;5.26;53.57
73566;BME280;61846;52.970;-3.168;2024-01-07T04:10:57;101772.95;;;4.65;54.57
73566;BME280;61846;52.970;-3.168;2024-01-07T04:13:22;101775.42;;;5.09;53.45
73566;BME280;61846;52.970;-3.168;2024-01-07T04:15:48;101782.54;;;3.95;55.57
73566;BME280;61846;52.970;-3.168;2024-01-07T04:18:14;101781.48;;;4.63;55.05
73566;BME280;61846;52.970;-3.168;2024-01-07T04:20:39;101781.93;;;4.50;54.67
73566;BME280;61846;52.970;-3.168;2024-01-07T04:23:05;101781.11;;;4.41;55.00
73566;BME280;61846;52.970;-3.168;2024-01-07T04:25:31;101785.34;;;3.81;56.56
73566;BME280;61846;52.970;-3.168;2024-01-07T04:27:57;101788.61;;;3.61;57.13
73566;BME280;61846;52.970;-3.168;2024-01-07T04:30:22;101795.37;;;3.43;57.12
73566;BME280;61846;52.970;-3.168;2024-01-07T04:32:48;101798.65;;;3.50;57.92
73566;BME280;61846;52.970;-3.168;2024-01-07T04:35:13;101804.53;;;3.35;58.42
73566;BME280;61846;52.970;-3.168;2024-01-07T04:37:39;101800.61;;;3.22;59.28
73566;BME280;61846;52.970;-3.168;2024-01-07T04:40:05;101798.55;;;3.96;57.31
73566;BME280;61846;52.970;-3.168;2024-01-07T04:42:30;101797.44;;;3.76;57.79
73566;BME280;61846;52.970;-3.168;2024-01-07T04:44:55;101792.75;;;4.49;56.27
73566;BME280;61846;52.970;-3.168;2024-01-07T04:47:26;101791.12;;;3.82;57.20
73566;BME280;61846;52.970;-3.168;2024-01-07T04:49:46;101792.83;;;4.68;54.88
73566;BME280;61846;52.970;-3.168;2024-01-07T04:52:12;101793.14;;;4.85;54.66
73566;BME280;61846;52.970;-3.168;2024-01-07T04:54:37;101797.67;;;4.75;54.49
73566;BME280;61846;52.970;-3.168;2024-01-07T04:57:03;101796.63;;;5.10;54.07
73566;BME280;61846;52.970;-3.168;2024-01-07T04:59:28;101802.19;;;4.50;55.15
73566;BME280;61846;52.970;-3.168;2024-01-07T05:01:53;101801.50;;;5.18;54.01
73566;BME280;61846;52.970;-3.168;2024-01-07T05:04:19;101804.53;;;5.28;53.27
73566;BME280;61846;52.970;-3.168;2024-01-07T05:06:44;101811.62;;;5.49;52.89
73566;BME280;61846;52.970;-3.168;2024-01-07T05:09:10;101811.38;;;4.94;54.21
73566;BME280;61846;52.970;-3.168;2024-01-07T05:11:39;101814.59;;;4.48;54.51
73566;BME280;61846;52.970;-3.168;2024-01-07T05:14:01;101814.24;;;4.66;54.98
73566;BME280;61846;52.970;-3.168;2024-01-07T05:16:27;101815.19;;;4.94;54.14
73566;BME280;61846;52.970;-3.168;2024-01-07T05:18:52;101821.82;;;4.63;54.68
73566;BME280;61846;52.970;-3.168;2024-01-07T05:21:18;101824.15;;;3.89;55.93
73566;BME280;61846;52.970;-3.168;2024-01-07T05:23:42;101825.31;;;4.19;55.57
73566;BME280;61846;52.970;-3.168;2024-01-07T05:26:07;101826.75;;;4.71;54.61
73566;BME280;61846;52.970;-3.168;2024-01-07T05:28:32;101829.48;;;5.32;53.04
73566;BME280;61846;52.970;-3.168;2024-01-07T05:30:58;101836.13;;;4.64;54.20
73566;BME280;61846;52.970;-3.168;2024-01-07T05:33:24;101839.91;;;3.89;56.06
73566;BME280;61846;52.970;-3.168;2024-01-07T05:35:49;101838.23;;;4.27;55.43
73566;BME280;61846;52.970;-3.168;2024-01-07T05:38:15;101840.00;;;4.16;54.94
73566;BME280;61846;52.970;-3.168;2024-01-07T05:40:40;101841.91;;;5.21;52.73
73566;BME280;61846;52.970;-3.168;2024-01-07T05:43:06;101849.30;;;4.85;54.02
73566;BME280;61846;52.970;-3.168;2024-01-07T05:45:31;101850.96;;;4.76;53.93
73566;BME280;61846;52.970;-3.168;2024-01-07T05:47:57;101853.22;;;4.59;53.86
73566;BME280;61846;52.970;-3.168;2024-01-07T05:50:22;101852.25;;;4.35;55.11
73566;BME280;61846;52.970;-3.168;2024-01-07T05:52:48;101852.55;;;4.23;55.30
73566;BME280;61846;52.970;-3.168;2024-01-07T05:55:13;101852.31;;;5.05;53.56
73566;BME280;61846;52.970;-3.168;2024-01-07T05:57:39;101856.00;;;4.74;54.51
73566;BME280;61846;52.970;-3.168;2024-01-07T06:00:06;101855.75;;;5.15;53.28
73566;BME280;61846;52.970;-3.168;2024-01-07T06:02:30;101855.83;;;5.61;52.08
73566;BME280;61846;52.970;-3.168;2024-01-07T06:04:55;101858.78;;;5.41;52.86
73566;BME280;61846;52.970;-3.168;2024-01-07T06:07:21;101863.65;;;3.95;55.59
73566;BME280;61846;52.970;-3.168;2024-01-07T06:09:46;101864.10;;;5.08;53.29
73566;BME280;61846;52.970;-3.168;2024-01-07T06:12:12;101866.79;;;5.33;52.40
73566;BME280;61846;52.970;-3.168;2024-01-07T06:14:37;101867.99;;;4.79;53.72
73566;BME280;61846;52.970;-3.168;2024-01-07T06:17:03;101872.10;;;5.10;53.31
73566;BME280;61846;52.970;-3.168;2024-01-07T06:19:30;101872.21;;;4.52;54.15
73566;BME280;61846;52.970;-3.168;2024-01-07T06:21:53;101871.91;;;5.25;52.95
73566;BME280;61846;52.970;-3.168;2024-01-07T06:24:19;101873.19;;;5.27;52.75
73566;BME280;61846;52.970;-3.168;2024-01-07T06:26:45;101875.20;;;5.34;52.52
73566;BME280;61846;52.970;-3.168;2024-01-07T06:29:10;101879.09;;;4.87;53.67
73566;BME280;61846;52.970;-3.168;2024-01-07T06:31:42;101885.70;;;3.96;54.94
73566;BME280;61846;52.970;-3.168;2024-01-07T06:34:02;101890.12;;;4.47;54.71
73566;BME280;61846;52.970;-3.168;2024-01-07T06:36:28;101889.55;;;5.35;52.52
73566;BME280;61846;52.970;-3.168;2024-01-07T06:38:54;101899.18;;;3.56;55.34
73566;BME280;61846;52.970;-3.168;2024-01-07T06:41:19;101901.96;;;4.11;55.47
73566;BME280;61846;52.970;-3.168;2024-01-07T06:43:46;101902.65;;;4.89;54.11
73566;BME280;61846;52.970;-3.168;2024-01-07T06:46:11;101902.96;;;4.95;52.58
73566;BME280;61846;52.970;-3.168;2024-01-07T06:48:36;101909.47;;;5.26;52.40
73566;BME280;61846;52.970;-3.168;2024-01-07T06:51:02;101912.33;;;5.08;52.97
73566;BME280;61846;52.970;-3.168;2024-01-07T06:53:27;101916.90;;;5.42;52.35
73566;BME280;61846;52.970;-3.168;2024-01-07T06:55:53;101921.73;;;5.05;52.55
73566;BME280;61846;52.970;-3.168;2024-01-07T06:58:18;101926.11;;;3.71;55.68
73566;BME280;61846;52.970;-3.168;2024-01-07T07:00:44;101929.20;;;4.44;55.32
73566;BME280;61846;52.970;-3.168;2024-01-07T07:03:10;101935.42;;;4.09;56.11
73566;BME280;61846;52.970;-3.168;2024-01-07T07:05:36;101939.81;;;3.85;57.00
73566;BME280;61846;52.970;-3.168;2024-01-07T07:08:01;101943.94;;;4.07;56.39
73566;BME280;61846;52.970;-3.168;2024-01-07T07:10:27;101947.90;;;3.78;57.64
73566;BME280;61846;52.970;-3.168;2024-01-07T07:12:53;101948.31;;;3.82;56.70
73566;BME280;61846;52.970;-3.168;2024-01-07T07:15:18;101954.57;;;3.21;58.05
73566;BME280;61846;52.970;-3.168;2024-01-07T07:17:45;101952.79;;;4.04;55.76
73566;BME280;61846;52.970;-3.168;2024-01-07T07:20:11;101958.89;;;4.15;55.54
73566;BME280;61846;52.970;-3.168;2024-01-07T07:22:36;101960.00;;;4.18;55.11
73566;BME280;61846;52.970;-3.168;2024-01-07T07:25:01;101961.44;;;4.32;55.13
73566;BME280;61846;52.970;-3.168;2024-01-07T07:27:27;101963.25;;;4.35;54.51
73566;BME280;61846;52.970;-3.168;2024-01-07T07:29:52;101966.15;;;4.85;54.25
73566;BME280;61846;52.970;-3.168;2024-01-07T07:32:18;101970.42;;;4.42;54.97
73566;BME280;61846;52.970;-3.168;2024-01-07T07:34:44;101971.48;;;4.33;55.07
73566;BME280;61846;52.970;-3.168;2024-01-07T07:37:10;101974.57;;;4.69;54.88
73566;BME280;61846;52.970;-3.168;2024-01-07T07:39:35;101975.75;;;4.63;54.63
73566;BME280;61846;52.970;-3.168;2024-01-07T07:42:01;101981.59;;;4.74;54.18
73566;BME280;61846;52.970;-3.168;2024-01-07T07:44:26;101983.66;;;4.44;53.68
73566;BME280;61846;52.970;-3.168;2024-01-07T07:46:52;101983.77;;;4.52;53.48
73566;BME280;61846;52.970;-3.168;2024-01-07T07:49:18;101987.45;;;5.31;52.74
73566;BME280;61846;52.970;-3.168;2024-01-07T07:51:44;101989.94;;;4.32;54.07
73566;BME280;61846;52.970;-3.168;2024-01-07T07:54:10;101992.44;;;4.14;54.15
73566;BME280;61846;52.970;-3.168;2024-01-07T07:56:35;101995.71;;;4.35;54.10
73566;BME280;61846;52.970;-3.168;2024-01-07T07:59:00;102000.18;;;4.71;53.55
73566;BME280;61846;52.970;-3.168;2024-01-07T08:01:26;102004.12;;;4.18;54.00
73566;BME280;61846;52.970;-3.168;2024-01-07T08:03:52;102006.46;;;4.44;54.24
73566;BME280;61846;52.970;-3.168;2024-01-07T08:06:18;102007.24;;;4.52;53.86
73566;BME280;61846;52.970;-3.168;2024-01-07T08:08:43;102007.25;;;4.36;54.66
73566;BME280;61846;52.970;-3.168;2024-01-07T08:11:09;102009.06;;;4.72;54.12
73566;BME280;61846;52.970;-3.168;2024-01-07T08:13:35;102013.03;;;4.18;54.92
73566;BME280;61846;52.970;-3.168;2024-01-07T08:16:00;102014.84;;;4.60;54.36
73566;BME280;61846;52.970;-3.168;2024-01-07T08:18:25;102018.04;;;4.92;53.90
73566;BME280;61846;52.970;-3.168;2024-01-07T08:20:51;102021.25;;;4.92;53.87
73566;BME280;61846;52.970;-3.168;2024-01-07T08:23:17;102023.50;;;4.11;53.70
73566;BME280;61846;52.970;-3.168;2024-01-07T08:25:42;102022.89;;;4.56;53.43
73566;BME280;61846;52.970;-3.168;2024-01-07T08:28:08;102025.71;;;4.43;54.08
73566;BME280;61846;52.970;-3.168;2024-01-07T08:30:33;102029.78;;;4.22;54.44
73566;BME280;61846;52.970;-3.168;2024-01-07T08:32:59;102036.69;;;2.99;57.07
73566;BME280;61846;52.970;-3.168;2024-01-07T08:35:25;102037.09;;;4.18;54.98
73566;BME280;61846;52.970;-3.168;2024-01-07T08:37:50;102034.74;;;4.20;54.80
73566;BME280;61846;52.970;-3.168;2024-01-07T08:40:16;102037.99;;;4.34;54.50
73566;BME280;61846;52.970;-3.168;2024-01-07T08:42:42;102035.66;;;4.72;54.35
73566;BME280;61846;52.970;-3.168;2024-01-07T08:45:08;102043.87;;;3.87;55.25
73566;BME280;61846;52.970;-3.168;2024-01-07T08:47:32;102043.55;;;4.20;54.81
73566;BME280;61846;52.970;-3.168;2024-01-07T08:49:58;102047.40;;;3.94;55.26
73566;BME280;61846;52.970;-3.168;2024-01-07T08:52:24;102049.23;;;4.73;53.86
73566;BME280;61846;52.970;-3.168;2024-01-07T08:54:49;102046.52;;;4.58;54.09
73566;BME280;61846;52.970;-3.168;2024-01-07T08:57:17;102045.70;;;4.39;54.67
73566;BME280;61846;52.970;-3.168;2024-01-07T08:59:41;102053.62;;;4.91;54.20
73566;BME280;61846;52.970;-3.168;2024-01-07T09:02:07;102057.05;;;4.37;54.64
73566;BME280;61846;52.970;-3.168;2024-01-07T09:04:31;102059.98;;;4.57;53.92
73566;BME280;61846;52.970;-3.168;2024-01-07T09:06:57;102058.89;;;5.08;53.42
73566;BME280;61846;52.970;-3.168;2024-01-07T09:09:23;102059.58;;;5.42;52.21
73566;BME280;61846;52.970;-3.168;2024-01-07T09:11:48;102059.86;;;5.26;52.17
73566;BME280;61846;52.970;-3.168;2024-01-07T09:14:13;102065.79;;;5.13;52.61
73566;BME280;61846;52.970;-3.168;2024-01-07T09:16:40;102066.77;;;3.25;55.92
73566;BME280;61846;52.970;-3.168;2024-01-07T09:19:05;102074.19;;;5.40;52.55
73566;BME280;61846;52.970;-3.168;2024-01-07T09:21:31;102074.61;;;5.66;52.19
73566;BME280;61846;52.970;-3.168;2024-01-07T09:23:57;102076.56;;;5.32;52.41
73566;BME280;61846;52.970;-3.168;2024-01-07T09:26:22;102081.57;;;5.50;51.66
73566;BME280;61846;52.970;-3.168;2024-01-07T09:28:48;102080.71;;;5.68;50.77
73566;BME280;61846;52.970;-3.168;2024-01-07T09:31:13;102081.39;;;5.28;51.80
73566;BME280;61846;52.970;-3.168;2024-01-07T09:33:39;102084.77;;;5.35;51.47
73566;BME280;61846;52.970;-3.168;2024-01-07T09:36:07;102086.35;;;5.59;51.48
73566;BME280;61846;52.970;-3.168;2024-01-07T09:38:29;102087.33;;;5.57;51.47
73566;BME280;61846;52.970;-3.168;2024-01-07T09:40:55;102092.90;;;5.29;52.61
73566;BME280;61846;52.970;-3.168;2024-01-07T09:43:21;102093.55;;;5.90;51.59
73566;BME280;61846;52.970;-3.168;2024-01-07T09:45:47;102094.15;;;5.67;51.37
73566;BME280;61846;52.970;-3.168;2024-01-07T09:48:12;102098.72;;;5.28;51.47
73566;BME280;61846;52.970;-3.168;2024-01-07T09:50:38;102097.92;;;5.75;51.21
73566;BME280;61846;52.970;-3.168;2024-01-07T09:53:04;102101.21;;;4.97;52.81
73566;BME280;61846;52.970;-3.168;2024-01-07T09:55:35;102102.51;;;4.25;54.44
73566;BME280;61846;52.970;-3.168;2024-01-07T09:57:54;102105.37;;;4.92;53.56
73566;BME280;61846;52.970;-3.168;2024-01-07T10:00:20;102102.31;;;5.16;53.36
73566;BME280;61846;52.970;-3.168;2024-01-07T10:02:45;102104.83;;;5.12;53.83
73566;BME280;61846;52.970;-3.168;2024-01-07T10:05:11;102109.78;;;5.50;53.62
73566;BME280;61846;52.970;-3.168;2024-01-07T10:07:36;102114.15;;;4.84;54.52
73566;BME280;61846;52.970;-3.168;2024-01-07T10:10:11;102121.21;;;5.05;55.44
73566;BME280;61846;52.970;-3.168;2024-01-07T10:12:28;102121.41;;;5.11;54.01
73566;BME280;61846;52.970;-3.168;2024-01-07T10:14:53;102123.62;;;5.31;53.58
73566;BME280;61846;52.970;-3.168;2024-01-07T10:17:19;102121.68;;;5.00;54.55
73566;BME280;61846;52.970;-3.168;2024-01-07T10:19:45;102121.36;;;4.98;53.85
73566;BME280;61846;52.970;-3.168;2024-01-07T10:22:12;102123.05;;;4.13;55.11
73566;BME280;61846;52.970;-3.168;2024-01-07T10:24:37;102126.07;;;5.00;54.53
73566;BME280;61846;52.970;-3.168;2024-01-07T10:27:03;102129.25;;;5.48;55.21
73566;BME280;61846;52.970;-3.168;2024-01-07T10:29:27;102129.52;;;5.14;55.43
73566;BME280;61846;52.970;-3.168;2024-01-07T10:31:55;102129.18;;;5.15;55.24
73566;BME280;61846;52.970;-3.168;2024-01-07T10:34:19;102133.79;;;4.52;56.19
73566;BME280;61846;52.970;-3.168;2024-01-07T10:36:45;102129.96;;;4.97;55.67
73566;BME280;61846;52.970;-3.168;2024-01-07T10:39:10;102130.23;;;4.59;55.64
73566;BME280;61846;52.970;-3.168;2024-01-07T10:41:37;102132.11;;;5.06;54.97
73566;BME280;61846;52.970;-3.168;2024-01-07T10:44:01;102135.23;;;6.05;52.83
73566;BME280;61846;52.970;-3.168;2024-01-07T10:46:28;102139.21;;;5.79;53.53
73566;BME280;61846;52.970;-3.168;2024-01-07T10:48:55;102143.68;;;5.91;53.68
73566;BME280;61846;52.970;-3.168;2024-01-07T10:51:20;102141.11;;;5.55;52.88
73566;BME280;61846;52.970;-3.168;2024-01-07T10:53:43;102145.28;;;5.80;52.53
73566;BME280;61846;52.970;-3.168;2024-01-07T10:56:11;102146.49;;;5.99;52.93
73566;BME280;61846;52.970;-3.168;2024-01-07T10:58:35;102144.81;;;5.43;54.72
73566;BME280;61846;52.970;-3.168;2024-01-07T11:01:00;102144.96;;;5.54;54.26
73566;BME280;61846;52.970;-3.168;2024-01-07T11:03:30;102146.85;;;6.01;53.76
73566;BME280;61846;52.970;-3.168;2024-01-07T11:05:54;102143.67;;;5.81;53.76
73566;BME280;61846;52.970;-3.168;2024-01-07T11:08:22;102141.28;;;5.71;53.50
73566;BME280;61846;52.970;-3.168;2024-01-07T11:10:45;102138.17;;;6.64;51.31
73566;BME280;61846;52.970;-3.168;2024-01-07T11:13:06;102138.94;;;6.20;52.93
73566;BME280;61846;52.970;-3.168;2024-01-07T11:17:57;102137.69;;;6.76;51.61
73566;BME280;61846;52.970;-3.168;2024-01-07T11:20:22;102133.32;;;6.73;50.98
73566;BME280;61846;52.970;-3.168;2024-01-07T11:22:48;102135.98;;;6.31;52.53
73566;BME280;61846;52.970;-3.168;2024-01-07T11:27:40;102140.77;;;6.51;52.41
73566;BME280;61846;52.970;-3.168;2024-01-07T11:30:07;102141.87;;;6.68;51.87
73566;BME280;61846;52.970;-3.168;2024-01-07T11:32:30;102142.57;;;6.24;52.58
73566;BME280;61846;52.970;-3.168;2024-01-07T11:34:55;102140.51;;;6.72;51.20
73566;BME280;61846;52.970;-3.168;2024-01-07T11:37:21;102143.75;;;6.46;52.18
73566;BME280;61846;52.970;-3.168;2024-01-07T11:39:47;102145.40;;;6.92;51.77
73566;BME280;61846;52.970;-3.168;2024-01-07T11:42:12;102146.17;;;6.48;51.93
73566;BME280;61846;52.970;-3.168;2024-01-07T11:44:37;102147.02;;;7.05;51.45
73566;BME280;61846;52.970;-3.168;2024-01-07T11:47:02;102147.29;;;6.31;51.61
73566;BME280;61846;52.970;-3.168;2024-01-07T11:49:28;102143.69;;;6.45;52.38
73566;BME280;61846;52.970;-3.168;2024-01-07T11:51:53;102142.55;;;6.21;52.43
73566;BME280;61846;52.970;-3.168;2024-01-07T11:54:18;102137.27;;;6.19;52.12
73566;BME280;61846;52.970;-3.168;2024-01-07T11:56:44;102144.17;;;5.93;53.96
73566;BME280;61846;52.970;-3.168;2024-01-07T11:59:09;102140.37;;;6.59;52.16
73566;BME280;61846;52.970;-3.168;2024-01-07T12:01:35;102136.40;;;6.54;51.54
73566;BME280;61846;52.970;-3.168;2024-01-07T12:04:00;102137.38;;;6.12;53.52
73566;BME280;61846;52.970;-3.168;2024-01-07T12:06:26;102141.41;;;6.33;53.03
73566;BME280;61846;52.970;-3.168;2024-01-07T12:08:52;102138.67;;;6.29;52.23
73566;BME280;61846;52.970;-3.168;2024-01-07T12:11:17;102145.60;;;6.14;53.90
73566;BME280;61846;52.970;-3.168;2024-01-07T12:13:43;102143.32;;;6.48;53.28
73566;BME280;61846;52.970;-3.168;2024-01-07T12:16:09;102143.66;;;6.51;52.43
73566;BME280;61846;52.970;-3.168;2024-01-07T12:18:36;102145.03;;;6.74;52.23
73566;BME280;61846;52.970;-3.168;2024-01-07T12:20:59;102144.88;;;6.55;53.29
73566;BME280;61846;52.970;-3.168;2024-01-07T12:23:24;102139.49;;;6.97;52.37
73566;BME280;61846;52.970;-3.168;2024-01-07T12:25:49;102138.69;;;5.93;54.21
73566;BME280;61846;52.970;-3.168;2024-01-07T12:28:17;102132.56;;;6.90;52.35
73566;BME280;61846;52.970;-3.168;2024-01-07T12:30:41;102133.95;;;7.18;51.49
73566;BME280;61846;52.970;-3.168;2024-01-07T12:33:06;102129.21;;;6.84;51.47
73566;BME280;61846;52.970;-3.168;2024-01-07T12:35:31;102130.14;;;6.94;52.71
73566;BME280;61846;52.970;-3.168;2024-01-07T12:37:56;102129.53;;;7.47;51.95
73566;BME280;61846;52.970;-3.168;2024-01-07T12:40:22;102132.31;;;7.63;51.34
73566;BME280;61846;52.970;-3.168;2024-01-07T12:42:48;102134.04;;;6.65;52.18
73566;BME280;61846;52.970;-3.168;2024-01-07T12:45:14;102137.19;;;6.96;52.39